createdAt,value
2023-05-16T00:01:48.283Z,99594.83
2023-05-16T00:04:15.129Z,99594.44
2023-05-16T00:06:41.893Z,99596.36
2023-05-16T00:09:08.506Z,99597.10
2023-05-16T00:11:35.238Z,99599.38
2023-05-16T00:14:02.686Z,99596.73
2023-05-16T00:16:30.341Z,99602.86
2023-05-16T00:19:00.933Z,99601.89
2023-05-16T00:21:28.152Z,99607.60
2023-05-16T00:23:54.853Z,99608.78
2023-05-16T00:26:21.804Z,99612.30
2023-05-16T00:28:48.870Z,99607.41
2023-05-16T00:31:15.736Z,99610.80
2023-05-16T00:33:42.628Z,99609.30
2023-05-16T00:36:09.477Z,99609.41
2023-05-16T00:38:36.135Z,99605.56
2023-05-16T00:41:02.774Z,99603.74
2023-05-16T00:43:29.724Z,99602.59
2023-05-16T00:45:58.133Z,99601.23
2023-05-16T00:48:25.102Z,99599.58
2023-05-16T00:50:52.985Z,99604.34
2023-05-16T00:53:20.112Z,99597.64
2023-05-16T00:55:47.123Z,99596.13
2023-05-16T00:58:13.905Z,99596.78
2023-05-16T01:00:40.573Z,99595.34
2023-05-16T01:03:07.499Z,99598.59
2023-05-16T01:05:34.336Z,99607.00
2023-05-16T01:08:01.066Z,99601.33
2023-05-16T01:10:33.162Z,99599.09
2023-05-16T01:13:16.175Z,99597.95
2023-05-16T01:15:53.263Z,99596.96
2023-05-16T01:18:31.471Z,99595.63
2023-05-16T01:21:03.969Z,99596.09
2023-05-16T01:23:43.589Z,99592.38
2023-05-16T01:26:20.198Z,99593.10
2023-05-16T01:28:47.041Z,99592.78
2023-05-16T01:31:13.748Z,99587.39
2023-05-16T01:33:40.498Z,99585.63
2023-05-16T01:36:10.443Z,99586.91
2023-05-16T01:38:41.954Z,99585.66
2023-05-16T01:41:10.861Z,99583.67
2023-05-16T01:43:47.046Z,99583.70
2023-05-16T01:46:26.034Z,99579.60
2023-05-16T01:49:01.559Z,99583.13
2023-05-16T01:51:30.811Z,99582.70
2023-05-16T01:54:01.463Z,99579.51
2023-05-16T01:56:28.125Z,99579.04
2023-05-16T01:58:54.845Z,99575.17
2023-05-16T02:01:21.573Z,99570.77
2023-05-16T02:03:48.243Z,99569.42
2023-05-16T02:06:15.092Z,99565.59
2023-05-16T02:08:41.774Z,99568.13
2023-05-16T02:11:08.922Z,99570.20
2023-05-16T02:13:35.669Z,99567.59
2023-05-16T02:16:04.446Z,99564.67
2023-05-16T02:18:31.318Z,99564.11
2023-05-16T02:20:58.322Z,99561.36
2023-05-16T02:23:25.055Z,99562.02
2023-05-16T02:25:53.667Z,99563.77
2023-05-16T02:28:22.434Z,99564.61
2023-05-16T02:30:57.700Z,99565.82
2023-05-16T02:33:26.997Z,99566.30
2023-05-16T02:35:54.356Z,99568.21
2023-05-16T02:38:21.252Z,99571.73
2023-05-16T02:40:48.807Z,99573.97
2023-05-16T02:43:15.724Z,99573.03
2023-05-16T02:45:42.562Z,99573.20
2023-05-16T02:48:09.582Z,99575.62
2023-05-16T02:50:37.619Z,99575.89
2023-05-16T02:53:04.774Z,99572.92
2023-05-16T02:55:31.529Z,99573.44
2023-05-16T02:57:58.141Z,99572.58
2023-05-16T03:00:25.024Z,99573.92
2023-05-16T03:02:52.038Z,99574.70
2023-05-16T03:05:19.039Z,99575.09
2023-05-16T03:07:45.678Z,99578.75
2023-05-16T03:10:12.405Z,99579.55
2023-05-16T03:12:39.056Z,99575.45
2023-05-16T03:15:06.766Z,99574.60
2023-05-16T03:17:34.025Z,99573.30
2023-05-16T03:20:02.368Z,99574.16
2023-05-16T03:22:29.022Z,99570.96
2023-05-16T03:24:56.651Z,99568.22
2023-05-16T03:27:23.289Z,99567.46
2023-05-16T03:29:49.923Z,99565.64
2023-05-16T03:32:17.078Z,99563.38
2023-05-16T03:34:43.734Z,99564.59
2023-05-16T03:37:11.041Z,99565.70
2023-05-16T03:39:37.864Z,99571.64
2023-05-16T03:42:04.946Z,99574.14
2023-05-16T03:44:31.695Z,99576.77
2023-05-16T03:46:58.796Z,99578.19
2023-05-16T03:49:28.130Z,99579.97
2023-05-16T03:51:55.155Z,99585.17
2023-05-16T03:54:22.339Z,99587.38
2023-05-16T03:56:48.973Z,99589.20
2023-05-16T03:59:15.767Z,99594.99
2023-05-16T04:01:42.613Z,99600.20
2023-05-16T04:04:09.414Z,99606.48
2023-05-16T04:06:36.546Z,99606.43
2023-05-16T04:09:03.565Z,99611.27
2023-05-16T04:11:30.878Z,99617.52
2023-05-16T04:13:58.929Z,99619.83
2023-05-16T04:16:25.802Z,99625.96
2023-05-16T04:18:53.015Z,99632.98
2023-05-16T04:21:19.743Z,99633.62
2023-05-16T04:23:46.461Z,99640.45
2023-05-16T04:26:14.541Z,99644.58
2023-05-16T04:28:41.711Z,99648.84
2023-05-16T04:33:35.022Z,99646.52
2023-05-16T04:36:01.701Z,99653.15
2023-05-16T04:38:28.443Z,99648.19
2023-05-16T04:40:55.097Z,99653.36
2023-05-16T04:43:21.776Z,99657.56
2023-05-16T04:45:48.745Z,99658.37
2023-05-16T04:48:15.539Z,99655.75
2023-05-16T04:50:42.531Z,99654.91
2023-05-16T04:53:09.341Z,99652.81
2023-05-16T04:55:35.952Z,99650.90
2023-05-16T04:58:02.809Z,99654.10
2023-05-16T05:00:29.769Z,99652.55
2023-05-16T05:02:56.938Z,99647.23
2023-05-16T05:05:23.844Z,99641.08
2023-05-16T05:07:50.592Z,99635.89
2023-05-16T05:10:17.365Z,99635.50
2023-05-16T05:12:44.014Z,99634.83
2023-05-16T05:15:10.879Z,99643.57
2023-05-16T05:17:38.141Z,99647.64
2023-05-16T05:20:07.020Z,99647.94
2023-05-16T05:22:33.996Z,99648.34
2023-05-16T05:25:00.757Z,99644.32
2023-05-16T05:27:27.790Z,99638.84
2023-05-16T05:29:54.487Z,99646.69
2023-05-16T05:32:21.251Z,99646.67
2023-05-16T05:34:48.100Z,99651.69
2023-05-16T05:37:14.919Z,99657.82
2023-05-16T05:39:41.532Z,99663.69
2023-05-16T05:42:08.208Z,99662.92
2023-05-16T05:44:35.111Z,99662.76
2023-05-16T05:47:01.734Z,99661.68
2023-05-16T05:49:28.398Z,99659.63
2023-05-16T05:51:55.289Z,99652.59
2023-05-16T05:54:23.553Z,99645.30
2023-05-16T05:56:50.279Z,99652.47
2023-05-16T05:59:17.051Z,99658.84
2023-05-16T06:01:46.896Z,99656.39
2023-05-16T06:04:13.551Z,99651.59
2023-05-16T06:06:40.369Z,99648.64
2023-05-16T06:09:07.288Z,99647.77
2023-05-16T06:11:33.945Z,99642.80
2023-05-16T06:14:00.892Z,99640.45
2023-05-16T06:16:27.669Z,99641.46
2023-05-16T06:18:54.503Z,99639.91
2023-05-16T06:21:21.489Z,99639.67
2023-05-16T06:23:48.278Z,99636.92
2023-05-16T06:26:14.993Z,99632.80
2023-05-16T06:28:41.770Z,99626.77
2023-05-16T06:31:08.464Z,99628.63
2023-05-16T06:33:35.179Z,99622.57
2023-05-16T06:39:01.575Z,99618.79
2023-05-16T06:41:28.569Z,99621.42
2023-05-16T06:43:55.223Z,99614.81
2023-05-16T06:46:22.215Z,99604.17
2023-05-16T06:48:49.060Z,99604.23
2023-05-16T06:51:16.209Z,99618.11
2023-05-16T06:53:42.944Z,99611.80
2023-05-16T06:56:09.650Z,99614.13
2023-05-16T06:58:36.749Z,99616.47
2023-05-16T07:01:03.669Z,99618.30
2023-05-16T07:03:31.980Z,99615.77
2023-05-16T07:05:58.989Z,99609.14
2023-05-16T07:08:26.160Z,99617.95
2023-05-16T07:10:52.823Z,99619.58
2023-05-16T07:13:19.592Z,99623.58
2023-05-16T07:15:46.449Z,99621.69
2023-05-16T07:18:13.217Z,99625.78
2023-05-16T07:20:39.943Z,99617.43
2023-05-16T07:23:06.880Z,99619.65
2023-05-16T07:25:33.766Z,99617.32
2023-05-16T07:28:01.151Z,99615.92
2023-05-16T07:30:28.103Z,99613.99
2023-05-16T07:32:54.918Z,99611.69
2023-05-16T07:35:22.066Z,99619.23
2023-05-16T07:37:48.828Z,99622.95
2023-05-16T07:40:15.713Z,99626.22
2023-05-16T07:42:42.376Z,99631.09
2023-05-16T07:45:09.945Z,99635.29
2023-05-16T07:47:36.717Z,99639.91
2023-05-16T07:50:03.556Z,99644.59
2023-05-16T07:52:30.382Z,99645.66
2023-05-16T07:54:57.628Z,99643.02
2023-05-16T07:57:25.314Z,99640.60
2023-05-16T07:59:52.753Z,99632.14
2023-05-16T08:02:19.766Z,99623.23
2023-05-16T08:04:47.029Z,99625.34
2023-05-16T08:07:13.930Z,99635.39
2023-05-16T08:09:40.723Z,99634.02
2023-05-16T08:12:08.015Z,99642.38
2023-05-16T08:14:34.940Z,99652.80
2023-05-16T08:17:01.832Z,99657.82
2023-05-16T08:19:29.641Z,99662.45
2023-05-16T08:21:56.771Z,99661.22
2023-05-16T08:24:23.698Z,99660.36
2023-05-16T08:26:50.741Z,99658.69
2023-05-16T08:29:17.745Z,99653.32
2023-05-16T08:31:44.664Z,99653.20
2023-05-16T08:34:12.240Z,99652.78
2023-05-16T08:36:39.061Z,99649.56
2023-05-16T08:39:06.102Z,99647.57
2023-05-16T08:41:33.054Z,99643.92
2023-05-16T08:43:59.856Z,99643.38
2023-05-16T08:46:26.814Z,99643.02
2023-05-16T08:48:53.940Z,99636.95
2023-05-16T08:51:20.898Z,99628.73
2023-05-16T08:53:53.104Z,99632.40
2023-05-16T08:56:19.998Z,99631.39
2023-05-16T08:58:46.678Z,99627.88
2023-05-16T09:01:13.763Z,99628.22
2023-05-16T09:03:40.986Z,99634.63
2023-05-16T09:06:08.444Z,99633.02
2023-05-16T09:08:35.583Z,99638.69
2023-05-16T09:11:05.655Z,99637.32
2023-05-16T09:13:32.656Z,99642.27
2023-05-16T09:16:16.272Z,99638.56
2023-05-16T09:18:44.231Z,99643.85
2023-05-16T09:21:11.646Z,99645.72
2023-05-16T09:23:38.367Z,99648.22
2023-05-16T09:26:05.503Z,99641.67
2023-05-16T09:28:32.260Z,99640.20
2023-05-16T09:31:00.050Z,99639.05
2023-05-16T09:33:29.968Z,99644.17
2023-05-16T09:36:00.678Z,99651.66
2023-05-16T09:38:28.001Z,99653.85
2023-05-16T09:40:55.259Z,99653.02
2023-05-16T09:43:26.287Z,99651.27
2023-05-16T09:45:53.094Z,99653.23
2023-05-16T09:48:21.165Z,99660.04
2023-05-16T09:50:55.141Z,99659.08
2023-05-16T09:53:28.871Z,99663.67
2023-05-16T09:56:03.528Z,99665.91
2023-05-16T09:58:33.363Z,99661.37
2023-05-16T10:01:00.189Z,99661.98
2023-05-16T10:03:27.372Z,99665.89
2023-05-16T10:05:54.831Z,99665.82
2023-05-16T10:08:25.851Z,99664.55
2023-05-16T10:10:55.704Z,99658.17
2023-05-16T10:13:30.934Z,99658.66
2023-05-16T10:15:59.027Z,99664.73
2023-05-16T10:18:35.053Z,99659.45
2023-05-16T10:21:10.423Z,99652.70
2023-05-16T10:23:38.458Z,99654.04
2023-05-16T10:26:06.197Z,99649.67
2023-05-16T10:28:32.995Z,99649.98
2023-05-16T10:30:59.816Z,99646.69
2023-05-16T10:33:26.745Z,99647.45
2023-05-16T10:35:53.534Z,99647.52
2023-05-16T10:38:20.529Z,99642.86
2023-05-16T10:40:47.468Z,99644.23
2023-05-16T10:43:30.692Z,99640.49
2023-05-16T10:46:03.001Z,99636.79
2023-05-16T10:48:37.025Z,99635.57
2023-05-16T10:51:05.628Z,99636.16
2023-05-16T10:53:34.133Z,99635.52
2023-05-16T10:56:04.019Z,99635.59
2023-05-16T10:58:38.475Z,99630.98
2023-05-16T11:01:18.030Z,99627.20
2023-05-16T11:03:57.259Z,99631.27
2023-05-16T11:06:27.862Z,99625.99
2023-05-16T11:09:05.704Z,99629.73
2023-05-16T11:11:51.752Z,99629.85
2023-05-16T11:14:25.523Z,99627.89
2023-05-16T11:17:09.429Z,99626.05
2023-05-16T11:19:40.603Z,99622.44
2023-05-16T11:22:08.575Z,99620.29
2023-05-16T11:24:36.537Z,99621.13
2023-05-16T11:27:04.317Z,99618.56
2023-05-16T11:29:35.757Z,99617.34
2023-05-16T11:32:04.298Z,99610.48
2023-05-16T11:34:37.713Z,99613.67
2023-05-16T11:37:04.801Z,99608.83
2023-05-16T11:39:32.639Z,99610.19
2023-05-16T11:41:59.437Z,99609.13
2023-05-16T11:44:26.484Z,99612.10
2023-05-16T11:46:53.268Z,99616.10
2023-05-16T11:49:19.996Z,99615.41
2023-05-16T11:51:46.843Z,99617.00
2023-05-16T11:54:13.601Z,99612.67
2023-05-16T11:56:43.209Z,99612.21
2023-05-16T11:59:11.207Z,99612.55
2023-05-16T12:01:39.312Z,99612.73
2023-05-16T12:04:10.889Z,99606.98
2023-05-16T12:06:38.475Z,99609.08
2023-05-16T12:09:10.689Z,99603.33
2023-05-16T12:11:38.578Z,99600.63
2023-05-16T12:14:06.468Z,99605.63
2023-05-16T12:16:33.346Z,99608.33
2023-05-16T12:19:02.077Z,99603.61
2023-05-16T12:21:28.808Z,99606.10
2023-05-16T12:23:56.618Z,99608.13
2023-05-16T12:26:30.828Z,99610.15
2023-05-16T12:29:00.962Z,99609.10
2023-05-16T12:31:32.263Z,99607.89
2023-05-16T12:33:59.713Z,99610.04
2023-05-16T12:36:26.575Z,99610.35
2023-05-16T12:38:53.627Z,99610.88
2023-05-16T12:41:21.765Z,99609.55
2023-05-16T12:43:51.863Z,99608.17
2023-05-16T12:46:19.858Z,99607.66
2023-05-16T12:48:48.258Z,99604.67
2023-05-16T12:51:17.986Z,99604.02
2023-05-16T12:53:57.533Z,99604.23
2023-05-16T12:56:28.579Z,99600.85
2023-05-16T12:58:55.345Z,99600.27
2023-05-16T13:01:22.152Z,99597.41
2023-05-16T13:03:48.967Z,99595.77
2023-05-16T13:06:16.046Z,99596.38
2023-05-16T13:08:42.752Z,99596.48
2023-05-16T13:11:09.493Z,99595.00
2023-05-16T13:13:37.317Z,99593.80
2023-05-16T13:16:04.465Z,99594.23
2023-05-16T13:18:31.650Z,99593.11
2023-05-16T13:20:58.558Z,99593.79
2023-05-16T13:23:25.276Z,99595.57
2023-05-16T13:25:53.141Z,99590.32
2023-05-16T13:28:19.907Z,99593.15
2023-05-16T13:30:46.828Z,99593.81
2023-05-16T13:33:13.759Z,99589.19
2023-05-16T13:35:40.659Z,99587.67
2023-05-16T13:38:07.433Z,99584.33
2023-05-16T13:40:34.271Z,99577.60
2023-05-16T13:43:01.844Z,99578.48
2023-05-16T13:45:28.991Z,99575.06
2023-05-16T13:47:55.996Z,99578.09
2023-05-16T13:50:22.766Z,99579.68
2023-05-16T13:52:49.436Z,99580.03
2023-05-16T13:55:16.173Z,99580.53
2023-05-16T13:57:42.930Z,99578.94
2023-05-16T14:00:43.588Z,99577.77
2023-05-16T14:02:59.462Z,99585.20
2023-05-16T14:05:26.446Z,99582.61
2023-05-16T14:07:53.370Z,99580.99
2023-05-16T14:10:20.152Z,99587.51
2023-05-16T14:12:46.814Z,99587.07
2023-05-16T14:15:13.543Z,99591.98
2023-05-16T14:17:40.388Z,99595.34
2023-05-16T14:20:10.753Z,99590.92
2023-05-16T14:22:37.703Z,99593.49
2023-05-16T14:25:06.317Z,99593.82
2023-05-16T14:27:33.075Z,99592.65
2023-05-16T14:29:59.798Z,99596.23
2023-05-16T14:32:27.088Z,99596.89
2023-05-16T14:34:54.021Z,99595.43
2023-05-16T14:37:21.024Z,99595.59
2023-05-16T14:39:50.184Z,99593.86
2023-05-16T14:42:18.161Z,99592.07
2023-05-16T14:44:44.888Z,99589.95
2023-05-16T14:47:11.814Z,99588.77
2023-05-16T14:49:38.746Z,99591.05
2023-05-16T14:52:06.446Z,99593.08
2023-05-16T14:54:33.497Z,99592.49
2023-05-16T14:57:01.136Z,99590.02
2023-05-16T14:59:28.007Z,99592.23
2023-05-16T15:01:55.004Z,99588.54
2023-05-16T15:04:22.138Z,99588.11
2023-05-16T15:06:49.012Z,99588.34
2023-05-16T15:09:15.812Z,99588.02
2023-05-16T15:11:42.586Z,99587.42
2023-05-16T15:14:09.271Z,99583.97
2023-05-16T15:16:36.449Z,99584.23
2023-05-16T15:19:03.357Z,99584.56
2023-05-16T15:21:31.622Z,99585.23
2023-05-16T15:23:58.868Z,99587.98
2023-05-16T15:26:25.688Z,99586.94
2023-05-16T15:28:52.449Z,99591.67
2023-05-16T15:31:19.228Z,99585.62
2023-05-16T15:33:48.268Z,99586.61
2023-05-16T15:36:15.318Z,99588.13
2023-05-16T15:38:45.378Z,99591.89
2023-05-16T15:41:18.727Z,99592.14
2023-05-16T15:43:53.531Z,99592.95
2023-05-16T15:46:20.370Z,99592.31
2023-05-16T15:48:47.071Z,99587.52
2023-05-16T15:51:15.650Z,99586.20
2023-05-16T15:53:42.366Z,99583.94
2023-05-16T15:56:09.650Z,99585.83
2023-05-16T15:58:36.423Z,99587.70
2023-05-16T16:01:03.344Z,99591.70
2023-05-16T16:03:30.263Z,99593.09
2023-05-16T16:05:57.242Z,99597.09
2023-05-16T16:08:24.050Z,99595.01
2023-05-16T16:10:51.479Z,99590.41
2023-05-16T16:13:18.180Z,99592.16
2023-05-16T16:15:44.978Z,99589.52
2023-05-16T16:18:13.885Z,99590.04
2023-05-16T16:20:40.948Z,99587.27
2023-05-16T16:23:08.252Z,99590.31
2023-05-16T16:25:34.907Z,99592.34
2023-05-16T16:28:01.744Z,99593.70
2023-05-16T16:30:28.406Z,99594.04
2023-05-16T16:32:55.187Z,99596.20
2023-05-16T16:35:24.628Z,99590.05
2023-05-16T16:38:05.624Z,99590.48
2023-05-16T16:40:33.366Z,99591.06
2023-05-16T16:43:00.144Z,99590.94
2023-05-16T16:45:27.147Z,99592.23
2023-05-16T16:47:54.272Z,99596.25
2023-05-16T16:50:21.317Z,99599.63
2023-05-16T16:52:48.054Z,99593.90
2023-05-16T16:55:15.049Z,99596.77
2023-05-16T16:57:42.457Z,99597.13
2023-05-16T17:00:11.458Z,99598.11
2023-05-16T17:02:38.660Z,99600.02
2023-05-16T17:05:06.199Z,99599.00
2023-05-16T17:07:33.127Z,99600.42
2023-05-16T17:10:01.193Z,99602.25
2023-05-16T17:12:29.045Z,99601.20
2023-05-16T17:14:57.320Z,99600.48
2023-05-16T17:17:25.234Z,99600.76
2023-05-16T17:19:52.317Z,99598.35
2023-05-16T17:22:19.102Z,99598.67
2023-05-16T17:24:45.992Z,99595.08
2023-05-16T17:27:13.555Z,99591.67
2023-05-16T17:29:40.204Z,99593.64
2023-05-16T17:32:07.229Z,99596.46
2023-05-16T17:34:33.987Z,99599.02
2023-05-16T17:37:00.693Z,99597.71
2023-05-16T17:39:27.636Z,99599.89
2023-05-16T17:41:55.198Z,99606.77
2023-05-16T17:44:21.871Z,99607.98
2023-05-16T17:46:49.036Z,99610.91
2023-05-16T17:49:16.062Z,99611.67
2023-05-16T17:51:46.646Z,99611.88
2023-05-16T17:54:13.733Z,99611.56
2023-05-16T17:56:40.425Z,99611.25
2023-05-16T17:59:07.315Z,99610.71
2023-05-16T18:01:34.177Z,99610.90
2023-05-16T18:04:01.369Z,99614.28
2023-05-16T18:06:28.358Z,99615.62
2023-05-16T18:08:55.072Z,99621.60
2023-05-16T18:11:22.405Z,99619.05
2023-05-16T18:13:49.218Z,99619.16
2023-05-16T18:16:16.174Z,99619.96
2023-05-16T18:18:43.047Z,99619.77
2023-05-16T18:21:10.046Z,99620.09
2023-05-16T18:23:37.024Z,99619.27
2023-05-16T18:26:03.824Z,99625.71
2023-05-16T18:28:30.834Z,99626.04
2023-05-16T18:30:57.642Z,99623.62
2023-05-16T18:33:24.349Z,99624.79
2023-05-16T18:35:51.300Z,99626.83
2023-05-16T18:38:31.170Z,99625.38
2023-05-16T18:40:59.397Z,99628.41
2023-05-16T18:43:26.314Z,99633.20
2023-05-16T18:45:53.002Z,99631.48
2023-05-16T18:48:20.075Z,99631.69
2023-05-16T18:50:47.258Z,99630.27
2023-05-16T18:55:53.044Z,99630.21
2023-05-16T18:58:20.048Z,99627.67
2023-05-16T19:00:49.528Z,99630.73
2023-05-16T19:03:17.376Z,99625.15
2023-05-16T19:05:44.941Z,99629.71
2023-05-16T19:08:12.099Z,99626.66
2023-05-16T19:10:41.543Z,99628.14
2023-05-16T19:13:08.904Z,99629.25
2023-05-16T19:15:35.956Z,99629.17
2023-05-16T19:18:04.965Z,99630.41
2023-05-16T19:20:33.178Z,99633.05
2023-05-16T19:23:00.114Z,99629.39
2023-05-16T19:25:27.114Z,99631.66
2023-05-16T19:27:54.276Z,99632.50
2023-05-16T19:30:21.270Z,99632.11
2023-05-16T19:32:48.002Z,99632.61
2023-05-16T19:35:14.855Z,99629.47
2023-05-16T19:37:41.602Z,99632.61
2023-05-16T19:40:08.742Z,99631.98
2023-05-16T19:42:35.676Z,99634.30
2023-05-16T19:45:02.386Z,99635.83
2023-05-16T19:47:29.166Z,99634.84
2023-05-16T19:49:56.087Z,99632.56
2023-05-16T19:52:22.822Z,99632.80
2023-05-16T19:54:49.568Z,99630.86
2023-05-16T19:57:16.813Z,99629.85
2023-05-16T19:59:43.498Z,99632.35
2023-05-16T20:02:10.285Z,99632.31
2023-05-16T20:04:37.342Z,99628.77
2023-05-16T20:07:04.072Z,99631.48
2023-05-16T20:09:31.279Z,99630.18
2023-05-16T20:11:58.875Z,99632.00
2023-05-16T20:14:25.863Z,99632.17
2023-05-16T20:16:53.042Z,99631.38
2023-05-16T20:19:20.002Z,99631.06
2023-05-16T20:21:46.801Z,99628.23
2023-05-16T20:24:14.477Z,99630.41
2023-05-16T20:26:41.510Z,99629.38
2023-05-16T20:29:08.312Z,99631.58
2023-05-16T20:31:35.083Z,99627.34
2023-05-16T20:34:01.938Z,99632.59
2023-05-16T20:36:28.719Z,99632.83
2023-05-16T20:38:55.517Z,99632.67
2023-05-16T20:41:22.480Z,99628.55
2023-05-16T20:43:50.617Z,99629.11
2023-05-16T20:46:17.329Z,99631.09
2023-05-16T20:48:44.149Z,99631.16
2023-05-16T20:51:10.865Z,99631.59
2023-05-16T20:53:37.581Z,99632.77
2023-05-16T20:56:04.634Z,99631.86
2023-05-16T20:58:31.292Z,99632.21
2023-05-16T21:00:58.470Z,99632.06
2023-05-16T21:03:25.310Z,99628.05
2023-05-16T21:05:52.204Z,99627.69
2023-05-16T21:08:19.118Z,99625.86
2023-05-16T21:10:46.043Z,99625.29
2023-05-16T21:13:12.697Z,99628.27
2023-05-16T21:15:39.694Z,99628.17
2023-05-16T21:18:06.748Z,99626.63
2023-05-16T21:20:33.562Z,99625.42
2023-05-16T21:23:00.374Z,99627.14
2023-05-16T21:25:28.868Z,99628.70
2023-05-16T21:27:56.272Z,99625.94
2023-05-16T21:30:22.992Z,99626.41
2023-05-16T21:32:49.773Z,99624.57
2023-05-16T21:35:16.581Z,99628.69
2023-05-16T21:37:43.262Z,99628.86
2023-05-16T21:40:10.615Z,99626.05
2023-05-16T21:42:37.294Z,99625.79
2023-05-16T21:45:04.499Z,99623.70
2023-05-16T21:47:31.383Z,99623.45
2023-05-16T21:49:58.228Z,99622.47
2023-05-16T21:52:25.896Z,99622.59
2023-05-16T21:54:52.920Z,99620.48
2023-05-16T21:57:19.892Z,99622.65
2023-05-16T21:59:46.623Z,99619.44
2023-05-16T22:02:13.514Z,99621.33
2023-05-16T22:04:40.592Z,99622.65
2023-05-16T22:07:07.436Z,99623.89
2023-05-16T22:09:34.258Z,99619.85
2023-05-16T22:12:00.975Z,99619.10
2023-05-16T22:14:27.683Z,99623.30
2023-05-16T22:16:54.595Z,99623.89
2023-05-16T22:19:21.366Z,99624.60
2023-05-16T22:21:48.059Z,99622.77
2023-05-16T22:24:14.930Z,99625.44
2023-05-16T22:26:41.777Z,99627.30
2023-05-16T22:29:08.637Z,99630.31
2023-05-16T22:31:35.563Z,99634.78
2023-05-16T22:34:03.076Z,99637.78
2023-05-16T22:36:29.811Z,99631.36
2023-05-16T22:38:56.505Z,99635.27
2023-05-16T22:41:23.222Z,99640.65
2023-05-16T22:43:49.884Z,99640.59
2023-05-16T22:46:16.572Z,99645.01
2023-05-16T22:48:43.346Z,99644.98
2023-05-16T22:51:10.137Z,99645.63
2023-05-16T22:53:37.102Z,99644.20
2023-05-16T22:56:04.214Z,99644.95
2023-05-16T22:58:30.951Z,99643.73
2023-05-16T23:00:58.122Z,99642.92
2023-05-16T23:03:24.948Z,99641.88
2023-05-16T23:05:51.654Z,99640.83
2023-05-16T23:08:18.348Z,99643.19
2023-05-16T23:10:45.113Z,99645.16
2023-05-16T23:13:11.796Z,99646.05
2023-05-16T23:15:38.559Z,99642.24
2023-05-16T23:18:06.097Z,99640.04
2023-05-16T23:20:32.904Z,99637.42
2023-05-16T23:22:59.983Z,99643.14
2023-05-16T23:25:26.950Z,99640.06
2023-05-16T23:27:58.062Z,99638.93
2023-05-16T23:30:25.038Z,99640.48
2023-05-16T23:32:51.989Z,99641.45
2023-05-16T23:35:18.790Z,99645.05
2023-05-16T23:37:45.577Z,99644.02
2023-05-16T23:40:12.583Z,99650.31
2023-05-16T23:42:41.222Z,99648.30
2023-05-16T23:45:08.471Z,99645.96
2023-05-16T23:47:35.280Z,99645.36
2023-05-16T23:50:03.498Z,99642.65
2023-05-16T23:52:30.902Z,99637.95
2023-05-16T23:54:57.681Z,99646.20
2023-05-16T23:57:24.357Z,99648.05
2023-05-16T23:59:51.188Z,99643.23
